Time;durP1;ratioP1;P1;durP2;ratioP2;P2;SDS_P1;SDS_P2;PMS_P1;PMS_P2;Temp;Humidity;BMP_temperature;BMP_pressure;BME280_temperature;BME280_humidity;BME280_pressure;Samples;Min_cycle;Max_cycle;Signal;HPM_P1;HPM_P2
2023/09/05 00:01:58;;;;;;;16.00;10.95;;;;;;;19.84;100.00;93278.72;4997834;28;20030;-81
2023/09/05 00:04:24;;;;;;;18.33;10.65;;;;;;;19.73;100.00;93283.63;4995825;28;20046;-81
2023/09/05 00:06:50;;;;;;;14.27;9.52;;;;;;;19.69;100.00;93277.41;4997259;28;20030;-81
2023/09/05 00:09:18;;;;;;;21.77;10.70;;;;;;;19.67;100.00;93276.94;4997909;28;20109;-81
2023/09/05 00:11:45;;;;;;;14.70;10.27;;;;;;;19.64;100.00;93274.94;4998507;28;20038;-81
2023/09/05 00:14:11;;;;;;;15.15;10.48;;;;;;;19.66;100.00;93275.38;4997226;28;20500;-81
2023/09/05 00:16:38;;;;;;;19.98;10.95;;;;;;;19.61;100.00;93272.94;4998524;28;20084;-81
2023/09/05 00:19:05;;;;;;;21.33;11.27;;;;;;;19.59;100.00;93276.97;4995358;28;20128;-80
2023/09/05 00:21:31;;;;;;;20.48;11.63;;;;;;;19.59;100.00;93274.31;4997390;28;20025;-81
2023/09/05 00:24:25;;;;;;;15.13;10.40;;;;;;;19.56;100.00;93273.88;4996991;28;20101;-81
2023/09/05 00:26:51;;;;;;;17.45;11.15;;;;;;;19.56;100.00;93270.44;4995945;28;20592;-81
2023/09/05 00:29:20;;;;;;;16.05;10.32;;;;;;;19.55;100.00;93272.31;4983683;28;20041;-80
2023/09/05 00:31:49;;;;;;;16.63;10.85;;;;;;;19.52;100.00;93270.31;4995972;28;20146;-81
2023/09/05 00:34:15;;;;;;;14.38;10.63;;;;;;;19.50;100.00;93269.09;4997308;28;20042;-81
2023/09/05 00:36:42;;;;;;;17.00;10.35;;;;;;;19.52;100.00;93272.19;4996430;28;20030;-81
2023/09/05 00:39:09;;;;;;;19.88;11.02;;;;;;;19.44;100.00;93260.53;4995869;28;20052;-80
2023/09/05 00:41:37;;;;;;;14.65;9.50;;;;;;;19.53;100.00;93265.78;4996056;28;20030;-81
2023/09/05 00:44:04;;;;;;;13.73;9.07;;;;;;;19.47;100.00;93267.84;4977960;28;20484;-82
2023/09/05 00:46:32;;;;;;;15.93;8.98;;;;;;;19.41;100.00;93266.50;4997020;28;20034;-81
2023/09/05 00:49:02;;;;;;;16.25;8.98;;;;;;;19.42;100.00;93267.25;4997634;28;20081;-81
2023/09/05 00:51:31;;;;;;;14.55;8.45;;;;;;;19.36;100.00;93258.69;4998533;28;20034;-81
2023/09/05 00:53:58;;;;;;;16.65;8.52;;;;;;;19.31;100.00;93259.66;4997435;28;20527;-81
2023/09/05 00:56:24;;;;;;;15.27;8.00;;;;;;;19.39;100.00;93255.41;4994176;28;20050;-80
2023/09/05 00:58:51;;;;;;;11.18;7.43;;;;;;;19.32;100.00;93247.97;4998797;28;20026;-81
2023/09/05 01:01:16;;;;;;;10.98;7.32;;;;;;;19.22;100.00;93252.84;5015910;28;20099;-81
2023/09/05 01:03:42;;;;;;;11.82;6.85;;;;;;;19.19;100.00;93242.88;4999427;28;20124;-80
2023/09/05 01:06:13;;;;;;;10.88;6.80;;;;;;;19.27;100.00;93250.81;5016266;28;20129;-79
2023/09/05 01:08:47;;;;;;;12.68;6.70;;;;;;;19.15;100.00;93245.41;5016564;28;20492;-81
2023/09/05 01:11:14;;;;;;;10.15;6.60;;;;;;;19.11;100.00;93242.59;4998735;28;20060;-81
2023/09/05 01:13:41;;;;;;;12.55;5.97;;;;;;;19.07;100.00;93246.22;4999218;28;20026;-81
2023/09/05 01:16:08;;;;;;;11.20;6.20;;;;;;;19.03;100.00;93245.31;5017924;28;20026;-82
2023/09/05 01:18:39;;;;;;;12.13;6.22;;;;;;;18.96;100.00;93240.50;4998444;28;20757;-81
2023/09/05 01:21:21;;;;;;;11.43;6.47;;;;;;;18.96;100.00;93245.00;4985517;28;20038;-81
2023/09/05 01:23:55;;;;;;;10.48;5.75;;;;;;;18.93;100.00;93236.59;5020982;28;20443;-80
2023/09/05 01:26:22;;;;;;;13.00;6.85;;;;;;;18.93;100.00;93241.13;5018347;28;20100;-81
2023/09/05 01:28:51;;;;;;;9.55;5.53;;;;;;;18.93;100.00;93236.59;5001089;28;20026;-80
2023/09/05 01:31:18;;;;;;;11.00;6.03;;;;;;;18.94;100.00;93234.75;5019128;28;20050;-81
2023/09/05 01:33:43;;;;;;;8.43;5.60;;;;;;;18.95;100.00;93227.56;5001433;28;20447;-82
2023/09/05 01:36:09;;;;;;;9.88;5.80;;;;;;;18.99;100.00;93233.78;5020367;28;20114;-80
2023/09/05 01:38:35;;;;;;;8.73;5.13;;;;;;;19.06;100.00;93236.72;5019145;28;20415;-79
2023/09/05 01:41:01;;;;;;;11.35;5.70;;;;;;;19.01;100.00;93232.38;5018905;28;20042;-81
2023/09/05 01:43:27;;;;;;;8.43;5.32;;;;;;;18.86;100.00;93230.25;4986086;28;20466;-81
2023/09/05 01:45:52;;;;;;;8.90;5.30;;;;;;;18.84;100.00;93221.81;5011193;28;20038;-81
2023/09/05 01:48:18;;;;;;;10.38;5.43;;;;;;;18.81;100.00;93227.78;5017040;28;20124;-81
2023/09/05 01:50:43;;;;;;;7.63;4.82;;;;;;;18.79;100.00;93220.13;5000168;28;20084;-81
2023/09/05 01:53:09;;;;;;;12.25;5.38;;;;;;;18.80;100.00;93227.00;5020022;28;20095;-80
2023/09/05 01:55:35;;;;;;;11.05;4.97;;;;;;;18.75;100.00;93221.06;5002599;28;20037;-80
2023/09/05 01:58:00;;;;;;;13.82;4.85;;;;;;;18.73;100.00;93221.38;5012001;28;20404;-81
2023/09/05 02:00:26;;;;;;;7.55;4.75;;;;;;;18.66;100.00;93215.78;5001124;28;20058;-81
2023/09/05 02:02:51;;;;;;;10.80;4.55;;;;;;;18.67;100.00;93215.47;5020154;28;20042;-81
2023/09/05 02:05:17;;;;;;;7.18;4.22;;;;;;;18.73;100.00;93218.72;5002347;28;20091;-81
2023/09/05 02:07:43;;;;;;;9.30;4.72;;;;;;;18.73;100.00;93211.56;5001189;28;20125;-81
2023/09/05 02:10:08;;;;;;;7.88;4.53;;;;;;;18.62;100.00;93214.88;5016548;28;20033;-80
2023/09/05 02:12:35;;;;;;;8.75;4.97;;;;;;;18.51;100.00;93207.28;5001079;28;20521;-80
2023/09/05 02:15:02;;;;;;;7.82;4.25;;;;;;;18.54;100.00;93213.81;5018882;28;20033;-81
2023/09/05 02:17:30;;;;;;;6.43;3.75;;;;;;;18.63;100.00;93208.47;5018836;28;20424;-81
2023/09/05 02:19:57;;;;;;;9.48;4.47;;;;;;;18.58;100.00;93208.66;5000693;28;20064;-82
2023/09/05 02:22:23;;;;;;;7.68;3.83;;;;;;;18.63;100.00;93206.59;5015992;28;20037;-81
2023/09/05 02:24:50;;;;;;;9.07;4.50;;;;;;;18.59;100.00;93213.63;5019337;28;20389;-81
2023/09/05 02:27:15;;;;;;;7.72;4.47;;;;;;;18.57;100.00;93207.88;5018126;28;20093;-81
2023/09/05 02:29:41;;;;;;;6.07;3.90;;;;;;;18.51;100.00;93207.28;5000496;28;20072;-81
2023/09/05 02:32:08;;;;;;;8.10;4.13;;;;;;;18.42;100.00;93211.06;4999732;28;20567;-81
2023/09/05 02:34:34;;;;;;;6.93;4.50;;;;;;;18.42;100.00;93211.06;5001654;28;20058;-81
2023/09/05 02:37:00;;;;;;;8.23;4.40;;;;;;;18.30;100.00;93215.13;5019116;28;20283;-81
2023/09/05 02:39:27;;;;;;;10.15;4.10;;;;;;;18.34;100.00;93217.16;5004306;28;20029;-81
2023/09/05 02:41:52;;;;;;;9.15;4.63;;;;;;;18.28;100.00;93217.34;4997403;28;20030;-80
2023/09/05 02:44:18;;;;;;;6.88;4.30;;;;;;;18.27;100.00;93204.38;5001085;28;20100;-80
2023/09/05 02:46:44;;;;;;;7.88;4.50;;;;;;;18.24;100.00;93215.63;5019036;28;20041;-80
2023/09/05 02:49:10;;;;;;;9.35;4.40;;;;;;;18.24;100.00;93205.81;5017454;28;20037;-81
2023/09/05 02:51:35;;;;;;;8.70;4.72;;;;;;;18.18;100.00;93201.00;5016772;28;20052;-81
2023/09/05 02:54:01;;;;;;;10.15;4.72;;;;;;;18.15;100.00;93201.59;5014467;28;20049;-80
2023/09/05 02:56:27;;;;;;;8.07;4.40;;;;;;;18.14;100.00;93200.81;5000529;28;20091;-81
2023/09/05 02:58:52;;;;;;;7.07;4.28;;;;;;;18.17;100.00;93191.47;4999785;28;20041;-79
2023/09/05 03:01:18;;;;;;;9.05;4.32;;;;;;;18.16;100.00;93197.88;5017492;28;20050;-80
2023/09/05 03:03:44;;;;;;;11.75;3.92;;;;;;;18.10;100.00;93192.75;4998410;28;20469;-79
2023/09/05 03:06:11;;;;;;;6.13;4.25;;;;;;;18.16;100.00;93197.88;5017367;28;20128;-81
2023/09/05 03:08:37;;;;;;;6.90;4.00;;;;;;;18.14;100.00;93202.72;4999682;28;20535;-81
2023/09/05 03:11:03;;;;;;;9.30;4.20;;;;;;;18.17;100.00;93204.72;4999411;28;20336;-80
2023/09/05 03:13:29;;;;;;;8.43;4.13;;;;;;;18.20;100.00;93204.88;4997968;28;20034;-81
2023/09/05 03:15:54;;;;;;;10.98;4.00;;;;;;;18.21;100.00;93197.69;5017577;28;20143;-79
2023/09/05 03:18:21;;;;;;;10.80;4.32;;;;;;;18.10;100.00;93206.00;4998392;28;20042;-80
2023/09/05 03:20:47;;;;;;;7.85;4.57;;;;;;;18.04;100.00;93206.47;5017639;28;20108;-80
2023/09/05 03:23:14;;;;;;;8.63;4.10;;;;;;;18.03;100.00;93199.59;5016436;28;20042;-81
2023/09/05 03:25:40;;;;;;;15.85;4.03;;;;;;;18.02;100.00;93201.47;4997904;28;20467;-80
2023/09/05 03:28:05;;;;;;;7.53;4.10;;;;;;;18.03;100.00;93199.59;4986627;28;20034;-80
2023/09/05 03:30:31;;;;;;;7.43;3.53;;;;;;;18.01;100.00;93196.50;5001787;28;20084;-80
2023/09/05 03:32:58;;;;;;;9.48;3.97;;;;;;;18.01;100.00;93196.50;4999770;28;20045;-81
2023/09/05 03:35:23;;;;;;;9.02;3.88;;;;;;;17.98;100.00;93189.19;5015231;28;20050;-80
2023/09/05 03:37:49;;;;;;;10.98;3.85;;;;;;;17.95;100.00;93187.94;5015762;28;20045;-80
2023/09/05 03:40:15;;;;;;;8.25;3.50;;;;;;;17.95;100.00;93192.47;5017053;28;20048;-82
2023/09/05 03:42:40;;;;;;;7.55;3.88;;;;;;;17.94;100.00;93191.66;5016470;28;20045;-80
2023/09/05 03:45:07;;;;;;;8.13;3.83;;;;;;;17.96;100.00;93188.72;4998693;28;20053;-83
2023/09/05 03:47:32;;;;;;;9.80;3.92;;;;;;;17.93;100.00;93192.78;5015218;28;20116;-81
2023/09/05 03:49:58;;;;;;;7.32;3.88;;;;;;;17.92;100.00;93198.38;4999663;28;20075;-80
2023/09/05 03:52:24;;;;;;;6.82;3.63;;;;;;;17.91;100.00;93200.25;4999540;28;20125;-81
2023/09/05 03:54:49;;;;;;;11.80;4.03;;;;;;;17.89;100.00;93191.84;5017226;28;20380;-81
2023/09/05 03:57:16;;;;;;;7.63;3.97;;;;;;;18.03;100.00;93192.44;5015461;28;20040;-81
2023/09/05 03:59:42;;;;;;;7.97;3.63;;;;;;;17.99;100.00;93196.81;4998881;28;20100;-80
2023/09/05 04:02:07;;;;;;;8.82;3.80;;;;;;;17.96;100.00;93194.78;4999146;28;20514;-81
2023/09/05 04:04:33;;;;;;;8.10;4.13;;;;;;;17.89;100.00;93189.19;4999095;28;20034;-80
2023/09/05 04:06:59;;;;;;;7.38;3.80;;;;;;;17.84;100.00;93192.00;4996180;28;20574;-80
2023/09/05 04:09:24;;;;;;;8.73;3.58;;;;;;;17.82;100.00;93188.91;4999295;28;20034;-81
2023/09/05 04:11:52;;;;;;;7.53;3.83;;;;;;;17.84;100.00;93199.97;4999480;28;20042;-80
2023/09/05 04:14:18;;;;;;;7.78;3.80;;;;;;;17.83;100.00;93199.19;4999061;28;20040;-79
2023/09/05 04:16:44;;;;;;;7.63;3.75;;;;;;;17.78;100.00;93201.16;4998729;28;20042;-81
2023/09/05 04:19:09;;;;;;;7.25;3.90;;;;;;;17.78;100.00;93198.53;4998015;28;20053;-80
2023/09/05 04:21:35;;;;;;;6.60;3.90;;;;;;;17.79;100.00;93197.44;4998906;28;20048;-80
2023/09/05 04:24:01;;;;;;;6.03;3.50;;;;;;;17.76;100.00;93190.13;4997633;28;20033;-81
2023/09/05 04:26:28;;;;;;;6.47;3.45;;;;;;;17.78;100.00;93193.22;4990770;28;20034;-80
2023/09/05 04:28:54;;;;;;;6.07;3.80;;;;;;;17.80;100.00;93185.75;5004164;28;20045;-80
2023/09/05 04:31:21;;;;;;;6.13;3.83;;;;;;;17.68;100.00;93196.97;4998729;28;20432;-79
2023/09/05 04:33:48;;;;;;;6.72;3.50;;;;;;;17.64;100.00;93196.03;5015237;28;20033;-81
2023/09/05 04:36:14;;;;;;;8.35;3.95;;;;;;;17.62;100.00;93196.34;5014202;28;20033;-81
2023/09/05 04:38:43;;;;;;;7.47;3.28;;;;;;;17.63;100.00;93200.56;5011828;28;20045;-82
2023/09/05 04:41:09;;;;;;;6.68;3.85;;;;;;;17.61;100.00;93189.50;5013848;28;20033;-79
2023/09/05 04:43:35;;;;;;;10.75;3.95;;;;;;;17.63;100.00;93195.28;4997746;28;20030;-81
2023/09/05 04:46:05;;;;;;;8.15;4.00;;;;;;;17.61;100.00;93196.69;4996888;28;20049;-81
2023/09/05 04:48:31;;;;;;;6.10;3.60;;;;;;;17.61;100.00;93200.09;5007802;28;20068;-81
2023/09/05 04:51:01;;;;;;;5.93;3.83;;;;;;;17.62;100.00;93200.88;5013001;28;20056;-81
2023/09/05 04:53:28;;;;;;;6.20;3.72;;;;;;;17.59;100.00;93202.28;5013332;28;20088;-81
2023/09/05 04:55:56;;;;;;;6.32;3.80;;;;;;;17.57;100.00;93201.81;5015140;28;20030;-81
2023/09/05 04:58:22;;;;;;;6.90;3.50;;;;;;;17.60;100.00;93200.41;5014027;28;20516;-81
2023/09/05 05:00:49;;;;;;;9.50;3.50;;;;;;;17.61;100.00;93210.69;5012221;28;20487;-81
2023/09/05 05:03:15;;;;;;;5.70;3.78;;;;;;;17.59;100.00;93210.22;5011395;28;20038;-81
2023/09/05 05:05:41;;;;;;;9.88;4.50;;;;;;;17.58;100.00;93210.53;5014211;28;20072;-79
2023/09/05 05:08:07;;;;;;;6.53;4.00;;;;;;;17.56;100.00;93213.50;4988310;28;20419;-81
2023/09/05 05:10:35;;;;;;;5.60;3.70;;;;;;;17.59;100.00;93218.16;5013137;28;20038;-81
2023/09/05 05:13:01;;;;;;;7.40;4.00;;;;;;;17.58;100.00;93215.81;5011295;28;20081;-81
2023/09/05 05:15:27;;;;;;;6.68;3.50;;;;;;;17.57;100.00;93220.34;5012706;28;20042;-81
2023/09/05 05:17:52;;;;;;;6.70;3.50;;;;;;;17.60;100.00;93219.69;4996033;28;20037;-81
2023/09/05 05:20:18;;;;;;;6.03;3.63;;;;;;;17.50;100.00;93217.38;5013959;28;20447;-81
2023/09/05 05:22:44;;;;;;;5.97;3.65;;;;;;;17.47;100.00;93213.50;4998725;28;20057;-80
2023/09/05 05:25:10;;;;;;;9.65;3.63;;;;;;;17.52;100.00;93209.91;5011555;28;20041;-78
2023/09/05 05:27:35;;;;;;;9.20;3.63;;;;;;;17.49;100.00;93215.81;5014578;28;20077;-80
2023/09/05 05:30:02;;;;;;;6.47;4.15;;;;;;;17.65;100.00;93219.56;5014341;28;20045;-79
2023/09/05 05:32:28;;;;;;;6.18;3.60;;;;;;;17.58;100.00;93213.94;5014421;28;20042;-79
2023/09/05 05:34:54;;;;;;;8.10;3.88;;;;;;;17.53;100.00;93218.63;4995163;28;20058;-79
2023/09/05 05:37:19;;;;;;;6.53;3.47;;;;;;;17.51;100.00;93224.22;5013220;28;20064;-81
2023/09/05 05:39:45;;;;;;;5.13;3.50;;;;;;;17.49;100.00;93226.41;4996762;28;20038;-84
2023/09/05 05:42:11;;;;;;;6.90;4.05;;;;;;;17.53;100.00;93219.41;5013844;28;20057;-81
2023/09/05 05:44:37;;;;;;;5.55;3.58;;;;;;;17.46;100.00;93227.81;5011954;28;20041;-83
2023/09/05 05:47:03;;;;;;;7.15;3.67;;;;;;;17.41;100.00;93224.53;5013603;28;20084;-82
2023/09/05 05:49:28;;;;;;;7.22;3.83;;;;;;;17.37;100.00;93227.00;5012518;28;20034;-79
2023/09/05 05:51:59;;;;;;;6.60;3.60;;;;;;;17.36;100.00;93225.47;5012957;28;20447;-83
2023/09/05 05:54:27;;;;;;;6.18;3.50;;;;;;;17.36;100.00;93233.41;5013242;28;20045;-82
2023/09/05 05:56:55;;;;;;;5.32;3.20;;;;;;;17.46;100.00;93229.69;5014068;28;20041;-83
2023/09/05 05:59:25;;;;;;;9.85;3.70;;;;;;;17.56;100.00;93232.03;5012587;28;20058;-82
2023/09/05 06:01:52;;;;;;;5.70;3.30;;;;;;;17.49;100.00;93234.34;5017897;28;20062;-82
2023/09/05 06:04:19;;;;;;;7.00;3.65;;;;;;;17.40;100.00;93231.69;5000815;28;20042;-83
2023/09/05 06:06:49;;;;;;;8.85;3.47;;;;;;;17.35;100.00;93233.72;5017804;28;20120;-84
2023/09/05 06:09:20;;;;;;;6.50;3.80;;;;;;;17.31;100.00;93232.75;5017284;28;20065;-84
2023/09/05 06:11:46;;;;;;;6.50;3.50;;;;;;;17.34;100.00;93234.78;4999984;28;20030;-83
2023/09/05 06:14:14;;;;;;;6.10;3.58;;;;;;;17.33;100.00;93235.88;5017543;28;20459;-83
2023/09/05 06:16:40;;;;;;;8.13;3.80;;;;;;;17.47;100.00;93236.50;5018397;28;20403;-82
2023/09/05 06:19:08;;;;;;;10.80;3.47;;;;;;;17.41;100.00;93232.47;5016775;28;20038;-83
2023/09/05 06:21:34;;;;;;;8.63;3.45;;;;;;;17.41;100.00;93227.97;5015090;28;20472;-83
2023/09/05 06:24:00;;;;;;;6.40;3.75;;;;;;;17.42;100.00;93234.03;5000454;28;20098;-83
2023/09/05 06:26:25;;;;;;;6.00;3.30;;;;;;;17.39;100.00;93226.72;5008965;28;20500;-84
2023/09/05 06:28:51;;;;;;;7.75;3.45;;;;;;;17.50;100.00;93230.63;4996007;28;20498;-84
2023/09/05 06:31:17;;;;;;;7.47;3.28;;;;;;;17.47;100.00;93226.72;5015077;28;20044;-83
2023/09/05 06:33:42;;;;;;;11.15;3.60;;;;;;;17.53;100.00;93229.97;5017313;28;20103;-82
2023/09/05 06:36:11;;;;;;;9.23;3.40;;;;;;;17.49;100.00;93229.03;5016295;28;20034;-83
2023/09/05 06:38:37;;;;;;;5.70;3.40;;;;;;;17.50;100.00;93229.84;4982851;28;20646;-83
2023/09/05 06:41:10;;;;;;;9.35;3.30;;;;;;;17.55;100.00;93230.47;5015486;28;20037;-83
2023/09/05 06:43:36;;;;;;;8.48;4.05;;;;;;;17.59;100.00;93228.75;5016678;28;20030;-84
2023/09/05 06:46:07;;;;;;;6.80;3.55;;;;;;;17.56;100.00;93218.00;5024832;28;20034;-82
2023/09/05 06:48:38;;;;;;;6.05;3.40;;;;;;;17.59;100.00;93225.31;4996998;28;20034;-83
2023/09/05 06:51:04;;;;;;;7.63;3.67;;;;;;;17.58;100.00;93224.53;4996687;28;20392;-82
2023/09/05 06:53:31;;;;;;;7.88;3.55;;;;;;;17.54;100.00;93231.56;5015866;28;20042;-82
2023/09/05 06:55:57;;;;;;;10.85;3.75;;;;;;;17.48;100.00;93232.78;4998369;28;20053;-83
2023/09/05 06:58:25;;;;;;;5.72;3.40;;;;;;;17.46;100.00;93227.03;5013682;28;20030;-83
2023/09/05 07:00:54;;;;;;;8.13;3.58;;;;;;;17.47;100.00;93228.56;5015432;28;20511;-82
2023/09/05 07:03:26;;;;;;;11.35;4.38;;;;;;;17.58;100.00;93227.19;4999771;28;20052;-82
2023/09/05 07:05:53;;;;;;;5.85;3.50;;;;;;;17.46;100.00;93232.31;5013548;28;20053;-83
2023/09/05 07:08:19;;;;;;;6.57;3.25;;;;;;;17.37;100.00;93229.66;5013494;28;20117;-84
2023/09/05 07:10:47;;;;;;;12.77;3.80;;;;;;;17.27;100.00;93238.69;4982355;28;20090;-83
2023/09/05 07:13:13;;;;;;;7.60;3.42;;;;;;;17.29;100.00;93233.06;5014447;28;20034;-85
2023/09/05 07:15:39;;;;;;;8.02;3.70;;;;;;;17.29;100.00;93235.72;5016009;28;20407;-84
2023/09/05 07:18:05;;;;;;;6.05;3.28;;;;;;;17.32;100.00;93231.69;5016303;28;20069;-84
2023/09/05 07:20:32;;;;;;;6.22;3.63;;;;;;;17.39;100.00;93226.72;4996820;28;20065;-84
2023/09/05 07:22:57;;;;;;;6.72;3.30;;;;;;;17.57;100.00;93232.81;5016946;28;20042;-83
2023/09/05 07:25:23;;;;;;;6.20;3.67;;;;;;;17.59;100.00;93234.03;5016286;28;20099;-83
2023/09/05 07:27:48;;;;;;;6.90;3.40;;;;;;;17.69;100.00;93233.72;4982572;28;20446;-84
2023/09/05 07:30:16;;;;;;;5.88;3.45;;;;;;;17.81;100.00;93234.97;5015232;28;20044;-83
2023/09/05 07:32:42;;;;;;;9.73;3.38;;;;;;;17.68;100.00;93232.19;5016130;28;20176;-82
2023/09/05 07:35:08;;;;;;;6.70;3.70;;;;;;;17.75;100.00;93239.66;5016231;28;20571;-83
2023/09/05 07:37:34;;;;;;;8.75;3.15;;;;;;;17.82;100.00;93239.97;5015970;28;20046;-82
2023/09/05 07:39:59;;;;;;;7.63;3.40;;;;;;;17.85;100.00;93246.53;4996679;28;20041;-83
2023/09/05 07:42:27;;;;;;;5.50;3.20;;;;;;;17.97;100.00;93246.69;5016269;28;20033;-84
2023/09/05 07:44:53;;;;;;;6.72;3.30;;;;;;;17.95;100.00;93248.88;5016225;28;20124;-84
2023/09/05 07:47:18;;;;;;;8.00;3.30;;;;;;;17.97;100.00;93243.22;5016457;28;20448;-84
2023/09/05 07:49:44;;;;;;;7.03;3.70;;;;;;;17.82;100.00;93247.94;4997940;28;20096;-83
2023/09/05 07:52:10;;;;;;;5.57;3.40;;;;;;;17.86;100.00;93245.44;5014791;28;20030;-84
2023/09/05 07:54:36;;;;;;;7.93;3.45;;;;;;;17.92;100.00;93240.75;4997666;28;20546;-84
2023/09/05 07:57:03;;;;;;;7.25;3.50;;;;;;;18.01;100.00;93244.16;5015940;28;20484;-84
2023/09/05 07:59:31;;;;;;;6.75;3.22;;;;;;;18.08;100.00;93250.56;5015981;28;20069;-84
2023/09/05 08:01:57;;;;;;;6.15;3.45;;;;;;;18.16;100.00;93243.69;5013697;28;20142;-83
2023/09/05 08:04:23;;;;;;;7.25;3.67;;;;;;;18.20;100.00;93247.28;5015597;28;20091;-84
2023/09/05 08:06:49;;;;;;;9.43;3.55;;;;;;;18.22;100.00;93249.63;5015998;28;20101;-83
2023/09/05 08:09:14;;;;;;;7.53;3.38;;;;;;;18.27;100.00;93241.50;5015640;28;20069;-83
2023/09/05 08:11:40;;;;;;;6.40;3.60;;;;;;;18.37;100.00;93246.44;4997254;28;20135;-83
2023/09/05 08:14:06;;;;;;;7.57;3.92;;;;;;;18.42;100.00;93237.56;4997931;28;20042;-82
2023/09/05 08:16:31;;;;;;;7.38;3.67;;;;;;;18.48;100.00;93239.72;4998231;28;20527;-84
2023/09/05 08:18:57;;;;;;;5.90;3.30;;;;;;;18.59;100.00;93247.31;4998614;28;20092;-82
2023/09/05 08:21:23;;;;;;;5.93;3.50;;;;;;;18.64;100.00;93244.50;5015391;28;20073;-83
2023/09/05 08:23:51;;;;;;;6.65;3.80;;;;;;;18.46;100.00;93254.38;5013048;28;20029;-84
2023/09/05 08:26:17;;;;;;;10.23;3.22;;;;;;;18.24;100.00;93252.72;5014715;28;20492;-83
2023/09/05 08:28:44;;;;;;;7.40;3.38;;;;;;;18.11;100.00;93259.75;5015345;28;20037;-83
2023/09/05 08:31:10;;;;;;;7.15;3.60;;;;;;;17.97;100.00;93264.44;5015673;28;20030;-83
2023/09/05 08:33:36;;;;;;;7.07;3.53;;;;;;;18.07;100.00;93261.47;5015680;28;20072;-84
2023/09/05 08:36:04;;;;;;;5.93;2.95;;;;;;;17.79;100.00;93264.41;5014983;28;20040;-84
2023/09/05 08:38:30;;;;;;;6.40;3.38;;;;;;;17.61;100.00;93265.50;5014950;28;20165;-84
2023/09/05 08:41:02;;;;;;;6.80;3.45;;;;;;;17.73;100.00;93267.53;5014743;28;20123;-85
2023/09/05 08:43:28;;;;;;;;;;;;;;;17.75;100.00;93262.72;5015346;28;20461;-84
2023/09/05 08:45:55;;;;;;;6.60;3.65;;;;;;;17.63;100.00;93266.75;5013750;28;19945;-84
2023/09/05 08:48:21;;;;;;;6.90;3.42;;;;;;;17.71;100.00;93272.34;4981156;28;20403;-83
2023/09/05 08:50:48;;;;;;;9.05;3.40;;;;;;;17.80;100.00;93271.25;4997569;28;20042;-83
2023/09/05 08:53:15;;;;;;;6.35;3.60;;;;;;;17.78;100.00;93277.97;4997343;28;20128;-83
2023/09/05 08:55:43;;;;;;;6.18;3.45;;;;;;;17.86;100.00;93280.66;4996891;28;20078;-83
2023/09/05 08:58:13;;;;;;;6.65;3.40;;;;;;;17.94;100.00;93275.66;4997616;28;20060;-84
2023/09/05 09:00:39;;;;;;;9.32;3.70;;;;;;;17.98;100.00;93279.25;5016164;28;20402;-84
2023/09/05 09:03:06;;;;;;;7.18;3.05;;;;;;;17.84;100.00;93282.81;4985120;28;20050;-82
2023/09/05 09:05:33;;;;;;;7.03;3.17;;;;;;;17.77;100.00;93282.50;4983869;28;20100;-84
2023/09/05 09:07:58;;;;;;;5.93;3.22;;;;;;;17.81;100.00;93287.91;4993262;28;20041;-82
2023/09/05 09:10:24;;;;;;;8.32;3.33;;;;;;;17.94;100.00;93281.72;4994614;28;20043;-84
2023/09/05 09:12:54;;;;;;;6.03;3.22;;;;;;;17.88;100.00;93275.03;4992837;28;20046;-84
2023/09/05 09:15:23;;;;;;;11.90;3.60;;;;;;;17.92;99.21;93283.13;4991245;28;20173;-82
2023/09/05 09:17:51;;;;;;;6.82;3.05;;;;;;;17.88;100.00;93281.13;4994597;28;20085;-84
2023/09/05 09:20:18;;;;;;;7.30;3.15;;;;;;;17.81;100.00;93285.28;4995173;28;20097;-83
2023/09/05 09:22:44;;;;;;;8.15;3.40;;;;;;;17.95;100.00;93291.25;4996040;28;20038;-83
2023/09/05 09:25:14;;;;;;;7.07;3.00;;;;;;;17.90;100.00;93296.72;4993763;28;20043;-82
2023/09/05 09:27:42;;;;;;;7.07;3.20;;;;;;;17.78;100.00;93286.69;4990828;28;20448;-85
2023/09/05 09:30:09;;;;;;;5.97;3.15;;;;;;;17.76;100.00;93291.50;4994605;28;20118;-85
2023/09/05 09:32:38;;;;;;;6.22;3.10;;;;;;;17.81;100.00;93283.47;4991295;28;20046;-85
2023/09/05 09:35:06;;;;;;;7.30;3.10;;;;;;;17.73;98.53;93291.38;4985227;28;20046;-83
2023/09/05 09:37:33;;;;;;;6.18;3.05;;;;;;;17.80;100.00;93294.31;4997837;28;20066;-83
2023/09/05 09:40:00;;;;;;;9.27;3.15;;;;;;;17.69;99.52;93291.97;4985560;28;20070;-83
2023/09/05 09:42:26;;;;;;;6.82;3.25;;;;;;;17.75;100.00;93299.78;4977919;28;20031;-84
2023/09/05 09:44:52;;;;;;;5.38;3.20;;;;;;;17.65;100.00;93293.69;4979043;28;20043;-83
2023/09/05 09:47:18;;;;;;;8.07;3.08;;;;;;;17.79;100.00;93296.19;4983151;28;20109;-82
2023/09/05 09:49:49;;;;;;;8.60;3.17;;;;;;;17.89;100.00;93295.13;4996977;28;20064;-83
2023/09/05 09:52:16;;;;;;;6.70;3.00;;;;;;;18.02;100.00;93290.78;4999022;28;20034;-82
2023/09/05 09:54:46;;;;;;;7.03;3.22;;;;;;;18.04;100.00;93289.38;4998940;28;20030;-82
2023/09/05 09:57:20;;;;;;;6.25;3.20;;;;;;;18.00;100.00;93291.06;4997980;28;20038;-82
2023/09/05 09:59:54;;;;;;;9.45;3.45;;;;;;;18.06;100.00;93286.41;4994667;28;20420;-81
2023/09/05 10:02:20;;;;;;;8.82;3.50;;;;;;;18.05;100.00;93290.91;4980022;28;20061;-85
2023/09/05 10:04:48;;;;;;;7.45;3.40;;;;;;;18.06;100.00;93270.53;4998523;28;20026;-82
2023/09/05 10:07:15;;;;;;;12.05;3.33;;;;;;;17.98;100.00;93282.66;4997320;28;20038;-84
2023/09/05 10:09:42;;;;;;;7.60;3.17;;;;;;;18.30;100.00;93288.56;4998329;28;20038;-80
2023/09/05 10:12:09;;;;;;;7.50;3.22;;;;;;;18.44;99.51;93278.56;4997643;28;20033;-84
2023/09/05 10:14:36;;;;;;;7.20;3.45;;;;;;;18.46;97.21;93280.88;5001953;28;20042;-83
2023/09/05 10:17:02;;;;;;;8.43;3.40;;;;;;;18.29;98.66;93277.19;5002896;28;20373;-84
2023/09/05 10:19:32;;;;;;;7.07;3.80;;;;;;;18.20;100.00;93281.72;4998027;28;20093;-82
2023/09/05 10:21:59;;;;;;;7.53;3.70;;;;;;;18.23;98.83;93280.31;4995188;28;20031;-83
2023/09/05 10:24:27;;;;;;;9.20;3.47;;;;;;;18.33;98.09;93276.53;4997414;28;20034;-85
2023/09/05 10:26:53;;;;;;;7.70;3.45;;;;;;;18.28;100.00;93275.63;4996627;28;20069;-83
2023/09/05 10:29:31;;;;;;;8.35;3.63;;;;;;;18.37;98.95;93274.81;4980182;28;20121;-84
2023/09/05 10:31:57;;;;;;;8.10;3.80;;;;;;;18.46;96.57;93283.53;4994801;28;20104;-83
2023/09/05 10:35:01;;;;;;;8.55;3.90;;;;;;;18.37;98.74;93272.19;4979555;28;20044;-84
2023/09/05 10:37:48;;;;;;;8.18;3.60;;;;;;;18.33;97.10;93272.03;4996528;28;20041;-85
2023/09/05 10:40:14;;;;;;;6.28;2.80;;;;;;;18.20;99.45;93273.00;4981025;28;20042;-84
2023/09/05 10:42:44;;;;;;;9.50;4.10;;;;;;;18.29;100.00;93268.47;4964260;28;20034;-83
2023/09/05 10:45:23;;;;;;;7.57;3.63;;;;;;;18.26;99.43;93269.06;4996423;28;20038;-84
2023/09/05 10:47:54;;;;;;;10.07;4.20;;;;;;;18.38;99.07;93263.91;4993419;28;20388;-85
2023/09/05 10:50:21;;;;;;;9.65;4.10;;;;;;;18.37;100.00;93256.28;4979581;28;20068;-85
2023/09/05 10:52:49;;;;;;;7.63;3.75;;;;;;;18.46;100.00;93260.47;4979728;28;20125;-84
2023/09/05 10:55:29;;;;;;;10.05;4.07;;;;;;;18.52;100.00;93256.53;4997731;28;20042;-85
2023/09/05 10:57:58;;;;;;;8.65;4.40;;;;;;;18.79;98.89;93251.97;4995008;28;20424;-85
2023/09/05 11:00:26;;;;;;;7.53;4.03;;;;;;;18.79;98.03;93254.63;4978532;28;20064;-86
2023/09/05 11:02:54;;;;;;;7.07;3.97;;;;;;;18.86;97.37;93246.16;4996677;28;20141;-85
2023/09/05 11:05:23;;;;;;;8.00;3.80;;;;;;;18.86;97.64;93244.28;4984881;28;20414;-85
2023/09/05 11:07:50;;;;;;;8.98;4.90;;;;;;;18.99;97.83;93244.41;4980818;28;20026;-84
2023/09/05 11:10:29;;;;;;;8.35;3.92;;;;;;;18.91;98.21;93243.31;4979219;28;20039;-83
2023/09/05 11:12:55;;;;;;;7.95;4.40;;;;;;;18.81;99.51;93244.47;4992245;28;20026;-84
2023/09/05 11:15:31;;;;;;;9.25;4.45;;;;;;;18.73;98.81;93243.38;4979136;28;20030;-85
2023/09/05 11:18:05;;;;;;;12.35;4.57;;;;;;;18.72;100.00;93239.16;4978292;28;20038;-83
2023/09/05 11:20:49;;;;;;;9.02;4.28;;;;;;;18.93;100.00;93235.81;4995823;28;20583;-83
2023/09/05 11:23:17;;;;;;;10.93;4.95;;;;;;;18.89;99.37;93229.59;4992243;28;20041;-83
2023/09/05 11:25:55;;;;;;;8.40;4.70;;;;;;;18.77;97.31;93227.63;4997326;28;20555;-84